Flight Track Log - Related Links

Times and Time Zones

All times are in EDT time to prevent confusion due to time zone crossing. See the RPA3253 flight status page for this flight to view local times or setup timezone preferences in your user account.

Time Position Orientation Groundspeed Altitude Reporting Facility
EDT Latitude Longitude Course Direction KTS MPH feet Rate Location/Type
Fri 10:41:03 PM 35.1911 -80.9508 251° West 166 191 1,500  Level Atlanta Center
Fri 10:41:57 PM 35.1517 -80.9525 182° South 174 200 2,400 1,299 Climbing Atlanta Center
Fri 10:42:40 PM 35.1300 -81.0014 242° Southwest 256 295 3,600 2,077 Climbing Atlanta Center
Fri 10:43:00 PM 35.2667 -81.1784 270° West  Level FlightAware Approximate
Fri 10:43:41 PM 35.1217 -81.0906 264° West 277 319 6,000  Level Atlanta Center
Fri 10:44:00 PM 35.1976 -81.2463 199° South  Level FlightAware Approximate
Fri 10:44:35 PM 35.1131 -81.1697 262° West 275 316 8,000  Level Atlanta Center
Fri 10:45:00 PM 35.0970 -81.2799 192° South  Level FlightAware Approximate
Fri 10:45:41 PM 35.0922 -81.2642 255° West 310 357 10,300  Level Atlanta Center
Fri 10:46:00 PM 35.0535 -81.3877 251° West  Level FlightAware Approximate
Fri 10:46:41 PM 35.0653 -81.3642 252° West 303 349 11,700  Level Atlanta Center
Fri 10:47:41 PM 35.0342 -81.4667 250° West 316 364 13,500 1,950 Climbing Atlanta Center
Fri 10:48:41 PM 35.0028 -81.5742 250° West 331 381 15,600 2,000 Climbing Atlanta Center
Fri 10:49:41 PM 34.9697 -81.6842 250° West 339 390 17,500 1,850 Climbing Atlanta Center
Fri 10:50:41 PM 34.9281 -81.8094 248° West 353 406 19,300 1,800 Climbing Atlanta Center
Fri 10:51:41 PM 34.8736 -81.9122 237° Southwest 367 422 21,100 1,700 Climbing Atlanta Center
Fri 10:52:41 PM 34.8147 -82.0122 234° Southwest 372 428 22,700 1,500 Climbing Atlanta Center
Fri 10:53:41 PM 34.7539 -82.1175 235° Southwest 377 434 24,100 1,250 Climbing Atlanta Center
Fri 10:54:41 PM 34.6931 -82.2300 237° Southwest 389 448 25,200 950 Climbing Atlanta Center
Fri 10:55:41 PM 34.6319 -82.3372 235° Southwest 394 453 26,000 400 Climbing Atlanta Center
Fri 10:56:41 PM 34.5667 -82.4497 235° Southwest 406 467 26,000  Level Atlanta Center
Fri 10:57:41 PM 34.5033 -82.5567 234° Southwest 406 467 26,000  Level Atlanta Center
Fri 10:58:41 PM 34.4378 -82.6686 235° Southwest 406 467 26,000  Level Atlanta Center
Fri 10:59:41 PM 34.3742 -82.7778 235° Southwest 406 467 26,000  Level Atlanta Center
Fri 11:00:41 PM 34.3147 -82.8769 234° Southwest 406 467 26,000  Level Atlanta Center
Fri 11:01:41 PM 34.2531 -82.9858 236° Southwest 400 460 26,000  Level Atlanta Center
Fri 11:02:41 PM 34.1914 -83.0969 236° Southwest 400 460 26,000  Level Atlanta Center
Fri 11:03:41 PM 34.1275 -83.2031 234° Southwest 405 466 26,000  Level Atlanta Center
Fri 11:04:41 PM 34.0633 -83.3142 235° Southwest 405 466 26,000  Level Atlanta Center
Fri 11:05:41 PM 33.9994 -83.4225 235° Southwest 405 466 26,000  Level Atlanta Center
Fri 11:06:41 PM 33.9289 -83.5406 234° Southwest 405 466 26,000  Level Atlanta Center
Fri 11:07:41 PM 33.8625 -83.6536 235° Southwest 405 466 26,000  Level Atlanta Center
Fri 11:08:41 PM 33.7981 -83.7614 234° Southwest 405 466 26,000  Level Atlanta Center
Fri 11:09:41 PM 33.7314 -83.8714 234° Southwest 405 466 26,000  Level Atlanta Center
Fri 11:10:41 PM 33.6669 -83.9814 235° Southwest 405 466 26,000  Level Atlanta Center
Fri 11:11:41 PM 33.6000 -84.0936 234° Southwest 411 473 26,000  Level Atlanta Center
Fri 11:12:41 PM 33.5333 -84.2033 234° Southwest 411 473 26,000  Level Atlanta Center
Fri 11:13:41 PM 33.4747 -84.3028 235° Southwest 411 473 26,000  Level Atlanta Center
Fri 11:14:41 PM 33.4075 -84.4147 234° Southwest 411 473 26,000  Level Atlanta Center
Fri 11:15:41 PM 33.3403 -84.5261 234° Southwest 411 473 26,000  Level Atlanta Center
Fri 11:16:41 PM 33.2731 -84.6350 234° Southwest 411 473 26,000  Level Atlanta Center
Fri 11:17:41 PM 33.2056 -84.7489 235° Southwest 411 473 26,000  Level Atlanta Center
Fri 11:18:41 PM 33.1319 -84.8697 234° Southwest 416 479 26,000  Level Atlanta Center
Fri 11:19:41 PM 33.0664 -84.9833 235° Southwest 421 484 26,000  Level Atlanta Center
Fri 11:20:41 PM 32.9967 -85.0914 232° Southwest 421 484 26,000  Level Atlanta Center
Fri 11:21:41 PM 32.9353 -85.1847 232° Southwest 415 478 26,000  Level Atlanta Center
Fri 11:22:41 PM 32.8653 -85.2950 233° Southwest 415 478 26,000  Level Atlanta Center
Fri 11:23:41 PM 32.7953 -85.4028 232° Southwest 415 478 26,000  Level Atlanta Center
Fri 11:24:41 PM 32.7292 -85.5156 235° Southwest 415 478 26,000  Level Atlanta Center
Fri 11:25:41 PM 32.6589 -85.6253 233° Southwest 415 478 26,000  Level Atlanta Center
Fri 11:26:41 PM 32.5908 -85.7375 234° Southwest 420 483 26,000  Level Atlanta Center
Fri 11:27:41 PM 32.5225 -85.8469 233° Southwest 420 483 26,000  Level Atlanta Center
Fri 11:28:41 PM 32.4433 -85.9686 232° Southwest 429 494 26,000  Level Atlanta Center
Fri 11:29:41 PM 32.3725 -86.0800 233° Southwest 429 494 26,000  Level Atlanta Center
Fri 11:30:41 PM 32.3019 -86.1889 233° Southwest 429 494 26,000  Level Atlanta Center
Fri 11:31:41 PM 32.2353 -86.2978 234° Southwest 430 495 26,000  Level Atlanta Center
Fri 11:32:41 PM 32.1750 -86.3897 232° Southwest 430 495 26,000  Level Atlanta Center
Fri 11:33:41 PM 32.0978 -86.5028 231° Southwest 425 489 26,000  Level Atlanta Center
Fri 11:34:41 PM 32.0206 -86.6083 229° Southwest 425 489 26,000  Level Atlanta Center
Fri 11:35:41 PM 31.9325 -86.7233 228° Southwest 425 489 26,000  Level Atlanta Center
Fri 11:36:41 PM 31.8592 -86.8289 231° Southwest 430 495 26,000  Level Atlanta Center
Fri 11:37:41 PM 31.7817 -86.9339 229° Southwest 430 495 26,000  Level Atlanta Center
Fri 11:38:41 PM 31.7061 -87.0389 230° Southwest 430 495 26,000  Level Atlanta Center
Fri 11:39:41 PM 31.6389 -87.1342 230° Southwest 430 495 26,000  Level Atlanta Center
Fri 11:41:05 PM 31.5294 -87.2764 228° Southwest 430 495 26,000  Level Houston Center
Fri 11:42:06 PM 31.4525 -87.3806 229° Southwest 424 488 26,000  Level Houston Center
Fri 11:43:07 PM 31.3742 -87.4869 229° Southwest 431 496 26,000  Level Houston Center
Fri 11:44:07 PM 31.2975 -87.5925 230° Southwest 426 490 26,000  Level Houston Center
Fri 11:45:08 PM 31.2100 -87.7094 229° Southwest 432 497 26,000  Level Houston Center
Fri 11:46:09 PM 31.1328 -87.8153 230° Southwest 430 495 26,000  Level Houston Center
Fri 11:47:09 PM 31.0544 -87.9206 229° Southwest 430 495 26,000  Level Houston Center
Fri 11:48:10 PM 30.9756 -88.0244 228° Southwest 429 494 26,000  Level Houston Center
Fri 11:49:11 PM 30.8950 -88.1297 228° Southwest 435 501 26,000  Level Houston Center
Fri 11:50:11 PM 30.8158 -88.2358 229° Southwest 434 499 26,000  Level Houston Center
Fri 11:51:12 PM 30.7381 -88.3408 229° Southwest 429 494 26,000  Level Houston Center
Fri 11:52:13 PM 30.6817 -88.4567 241° Southwest 428 493 26,000  Level Houston Center
Fri 11:53:13 PM 30.6264 -88.5806 243° Southwest 430 495 26,000  Level Houston Center
Fri 11:54:14 PM 30.5606 -88.7278 243° Southwest 428 493 26,000  Level Houston Center
Fri 11:55:14 PM 30.5058 -88.8503 243° Southwest 427 491 26,000 -446 Level Houston Center
Fri 11:56:15 PM 30.4606 -88.9522 243° Southwest 429 494 25,100 -1,721 Descending Houston Center
Fri 11:57:16 PM 30.3989 -89.0950 243° Southwest 414 476 22,500 -2,331 Descending Houston Center
Fri 11:58:16 PM 30.3553 -89.2111 247° West 397 457 20,400 -2,132 Descending Houston Center
Fri 11:59:17 PM 30.3142 -89.3250 247° West 385 443 18,200 -1,983 Descending Houston Center
Sat 12:00:17 AM 30.2739 -89.4356 247° West 374 430 16,400 -1,824 Descending Houston Center
Sat 12:00:59 AM 30.2461 -89.5114 247° West 367 422 15,100 -2,000 Descending Houston Center
Sat 12:01:59 AM 30.2081 -89.6167 247° West 353 406 13,000 -1,983 Descending Houston Center
Sat 12:03:00 AM 30.1678 -89.7194 246° West 349 402 11,100 -1,279 Descending Houston Center
Sat 12:04:01 AM 30.1292 -89.8103 244° Southwest 310 357 10,400 -1,537 Descending Houston Center
Sat 12:05:01 AM 30.0858 -89.8939 239° Southwest 293 337 8,000 -2,035 Descending Houston Center
Sat 12:05:56 AM 30.0528 -89.9697 243° Southwest 292 336 6,500 -1,409 Descending Houston Center
Sat 12:06:56 AM 30.0661 -90.0606 280° West 279 321 5,300 -677 Descending Houston Center
Sat 12:08:09 AM 30.0794 -90.1464 280° West 197 227 5,000 -129 Descending Houston Center
Sat 12:09:16 AM 30.0897 -90.2156 280° West 186 214 5,000  Level Houston Center
Sat 12:10:23 AM 30.1000 -90.2831 280° West 194 223 5,000 -248 Level Houston Center
Sat 12:11:17 AM 30.1061 -90.3375 277° West 193 222 4,500 -835 Descending Houston Center
Sat 12:12:18 AM 30.1142 -90.3975 279° West 189 217 3,400 -942 Descending Houston Center
Sat 12:13:18 AM 30.0711 -90.4278 211° Southwest 185 213 2,600 -567 Descending Houston Center
Sat 12:14:25 AM 30.0319 -90.4214 172° South 189 217 2,200 -574 Descending Houston Center
Sat 12:15:13 AM 30.0175 -90.3772 111° Southeast 166 191 1,500 -757 Descending Houston Center
Sat 12:16:08 AM 30.0100 -90.3389 103° East 148 170 900 -672 Descending Houston Center
Sat 12:17:09 AM 29.9981 -90.2939 107° East 137 158 200 -689 Descending Houston Center

Login

Don't have an account? Register now (free) for customized features, flight alerts, and more!